Aérodrome :
LOGIN :

S'inscrire | Disclaimer

   EN    FR    IT 

 










Légende :    VFR   VFR Marginal   IFR   IFR Intensif   IFR Très Intensif
Visi : 
Plafond : 
>= 8 km
>= 3000ft
5 à 8 km
1000 à 3000 ft
1500m à 5 km
500 à 1000 ft
800 à 1500m
200 à 500 ft
< 800m
< 200 ft
Symboles :   Orages  Brouillard  Fortes neiges  Fortes précipitations  Vent > 20 kt
SIGMETs :   Divers  Orages  Givrage  Turbulence  Onde Orograph.  Cendres Volcan.







- Altitude de l'aérodrome : 782 ft
- Code IATA : BGY


LIME - Orio al Serio International - Bergamo

DERNIER METAR :
  • 251520Z 16006KT 100V270 9999 BKN040 23/13 Q1017 NOSIG

METARs EXPIRÉS :
  • 251450Z 15007KT 100V210 9999 SCT040 SCT090 24/14 Q1017 NOSIG
  • 251420Z 13007KT 090V220 9999 SCT040 SCT090 24/15 Q1017 NOSIG
  • 251350Z 13009KT 090V170 9999 SCT040 SCT090 23/15 Q1017 NOSIG
  • 251320Z 12009KT 090V150 9999 SCT040 SCT090 23/14 Q1017 NOSIG
  • 251250Z 12009KT 090V170 9999 BKN040 22/14 Q1017 NOSIG

TAF TAF LIME
Valide du 25 à 12h jusqu'au 26 à 12h UTC


251100Z 2512/2612 13012KT 9999 SCT040
TEMPO 2512/2518 SHRA
Pas de NOTAMs connus pour ce terrain.
5 SIGMETs publiés pour la FIR Milano (LIMM) :
 
Turbulence forte
LIMM SIGMET 9 VALID 251300/251700 LIIP
LIMM MILANO FIR SEV TURB FCST E OF LINE N4656 E01037 - N4321 E01010 FL250/350 MOV ESE NC=
Turbulence forte
LIMM SIGMET 8 VALID 251300/251700 LIIP
LIMM MILANO FIR SEV TURB FCST E OF LINE N4708 E01158 - N4322 E01016 FL250/350 MOV ESE WKN=
Orages noyés dans la masse
LIMM SIGMET 12 VALID 251540/251740 LIIP
LIMM MILANO FIR EMBD TS OBS SE OF LINE N4340 E01117 - N4438 E01321 TOP ABV FL240 MOV SE NC=
Orages noyés dans la masse
LIMM SIGMET 11 VALID 251340/251540 LIIP
LIMM MILANO FIR EMBD TS OBS WI N4433 E01321 - N4341 E01127 - N4330 E01425 - N4433 E01321 TOP FL320 MOV SE NC=
Annulation du SIGMET 8 
LIMM SIGMET 10 VALID 251258/251700 LIIP
LIMM MILANO FIR CNL SIGMET 8 251300/251700=



MET'MAP, la Météo Aéronautique d'un coup d'oeil ! - Copyright ORBIFLY Décembre 2007 - Disclaimer

ORBIFLY MET'MAP TEAM :

Programmation & Développement : Alexandra Zaïnal
Conception & Développement : Baudouin d'Aumeries
Co-Programmation & Développement : Marc-Olivier Méhu
Soutien technique & logistique : Manuel Goepfert

Contact : metmap@orbifly.com




SOURCES & CREDITS :

   NOAA